createdAt,value
2023-03-26T00:02:21.408Z,11.50
2023-03-26T00:04:50.274Z,9.30
2023-03-26T00:07:17.988Z,10.30
2023-03-26T00:09:45.690Z,9.20
2023-03-26T00:12:13.353Z,11.10
2023-03-26T00:14:41.138Z,13.30
2023-03-26T00:17:08.981Z,12.80
2023-03-26T00:19:37.261Z,13.20
2023-03-26T00:22:06.161Z,8.80
2023-03-26T00:24:34.018Z,8.90
2023-03-26T00:27:02.085Z,12.30
2023-03-26T00:29:33.436Z,7.90
2023-03-26T00:32:01.920Z,8.20
2023-03-26T00:34:29.990Z,9.20
2023-03-26T00:37:02.702Z,7.50
2023-03-26T00:39:33.876Z,10.20
2023-03-26T00:42:07.006Z,10.80
2023-03-26T00:44:34.793Z,6.80
2023-03-26T00:47:03.762Z,5.10
2023-03-26T00:49:32.254Z,7.40
2023-03-26T00:52:00.214Z,8.70
2023-03-26T00:54:28.697Z,6.50
2023-03-26T00:56:56.545Z,5.00
2023-03-26T00:59:24.392Z,4.10
2023-03-26T01:01:55.376Z,7.00
2023-03-26T01:04:27.941Z,6.00
2023-03-26T01:06:56.432Z,2.40
2023-03-26T01:09:24.494Z,3.50
2023-03-26T01:11:52.158Z,3.80
2023-03-26T01:14:19.826Z,3.50
2023-03-26T01:16:50.137Z,2.70
2023-03-26T01:19:18.010Z,3.00
2023-03-26T01:21:47.515Z,4.10
2023-03-26T01:24:15.176Z,3.00
2023-03-26T01:26:42.837Z,4.30
2023-03-26T01:29:10.467Z,4.40
2023-03-26T01:31:38.979Z,3.90
2023-03-26T01:34:06.624Z,6.30
2023-03-26T01:36:34.303Z,3.30
2023-03-26T01:39:01.965Z,3.60
2023-03-26T01:41:29.833Z,2.80
2023-03-26T01:43:58.587Z,4.00
2023-03-26T01:46:26.324Z,3.50
2023-03-26T01:48:54.249Z,3.40
2023-03-26T01:51:21.917Z,4.70
2023-03-26T01:53:49.570Z,3.80
2023-03-26T01:56:17.232Z,3.90
2023-03-26T01:58:44.894Z,4.30
2023-03-26T02:01:12.904Z,3.90
2023-03-26T02:03:40.659Z,4.10
2023-03-26T02:06:08.599Z,4.90
2023-03-26T02:08:36.261Z,4.20
2023-03-26T02:11:04.612Z,5.10
2023-03-26T02:13:32.400Z,4.00
2023-03-26T02:16:00.201Z,3.70
2023-03-26T02:18:36.502Z,6.90
2023-03-26T02:21:04.396Z,3.20
2023-03-26T02:23:36.009Z,2.70
2023-03-26T02:26:03.818Z,4.30
2023-03-26T02:28:31.790Z,3.90
2023-03-26T02:31:02.108Z,3.70
2023-03-26T02:33:29.770Z,2.40
2023-03-26T02:36:02.226Z,3.80
2023-03-26T02:38:30.110Z,3.30
2023-03-26T02:40:57.770Z,2.70
2023-03-26T02:43:25.739Z,2.60
2023-03-26T02:45:53.605Z,2.90
2023-03-26T02:48:22.075Z,3.20
2023-03-26T02:50:50.466Z,2.70
2023-03-26T02:53:18.129Z,2.40
2023-03-26T02:55:45.903Z,2.80
2023-03-26T02:58:17.747Z,3.80
2023-03-26T03:00:47.464Z,5.40
2023-03-26T03:03:17.375Z,3.50
2023-03-26T03:05:45.139Z,3.30
2023-03-26T03:08:13.518Z,3.00
2023-03-26T03:10:41.384Z,2.90
2023-03-26T03:13:09.149Z,3.00
2023-03-26T03:15:36.914Z,3.20
2023-03-26T03:18:04.582Z,3.90
2023-03-26T03:20:35.434Z,2.50
2023-03-26T03:23:03.287Z,1.60
2023-03-26T03:25:31.145Z,1.80
2023-03-26T03:27:59.119Z,1.90
2023-03-26T03:30:26.881Z,2.40
2023-03-26T03:32:54.554Z,2.90
2023-03-26T03:35:22.328Z,2.00
2023-03-26T03:37:50.072Z,3.10
2023-03-26T03:40:17.742Z,2.20
2023-03-26T03:42:45.599Z,2.40
2023-03-26T03:45:13.262Z,2.90
2023-03-26T03:47:41.063Z,3.30
2023-03-26T03:50:08.894Z,3.30
2023-03-26T03:52:36.658Z,1.70
2023-03-26T03:55:04.419Z,2.40
2023-03-26T03:57:33.721Z,2.50
2023-03-26T04:00:01.693Z,2.10
2023-03-26T04:02:35.221Z,3.20
2023-03-26T04:05:03.161Z,1.50
2023-03-26T04:07:31.440Z,2.00
2023-03-26T04:10:00.297Z,3.30
2023-03-26T04:12:28.436Z,3.10
2023-03-26T04:14:56.262Z,1.20
2023-03-26T04:17:24.078Z,2.30
2023-03-26T04:19:53.145Z,2.20
2023-03-26T04:22:21.803Z,2.90
2023-03-26T04:24:50.389Z,1.60
2023-03-26T04:27:18.016Z,1.20
2023-03-26T04:29:45.719Z,1.90
2023-03-26T04:32:14.498Z,3.40
2023-03-26T04:34:46.176Z,2.10
2023-03-26T04:37:14.433Z,2.60
2023-03-26T04:39:42.096Z,2.00
2023-03-26T04:42:09.762Z,1.90
2023-03-26T04:44:37.519Z,1.00
2023-03-26T04:47:05.193Z,2.50
2023-03-26T04:49:32.946Z,1.30
2023-03-26T04:52:00.559Z,1.00
2023-03-26T04:54:28.275Z,1.20
2023-03-26T04:56:56.956Z,1.30
2023-03-26T04:59:26.588Z,1.90
2023-03-26T05:01:54.426Z,1.40
2023-03-26T05:04:22.173Z,1.20
2023-03-26T05:06:50.060Z,1.30
2023-03-26T05:09:17.717Z,2.40
2023-03-26T05:11:45.585Z,1.40
2023-03-26T05:14:13.249Z,2.70
2023-03-26T05:16:41.608Z,2.60
2023-03-26T05:19:09.391Z,2.30
2023-03-26T05:21:37.150Z,2.20
2023-03-26T05:24:06.449Z,3.20
2023-03-26T05:26:34.112Z,2.70
2023-03-26T05:29:03.215Z,1.50
2023-03-26T05:31:33.942Z,2.70
2023-03-26T05:34:01.894Z,1.90
2023-03-26T05:36:29.680Z,1.30
2023-03-26T05:38:57.440Z,5.00
2023-03-26T05:41:25.102Z,2.10
2023-03-26T05:43:52.829Z,1.80
2023-03-26T05:46:22.119Z,2.30
2023-03-26T05:48:50.042Z,3.40
2023-03-26T05:51:17.698Z,3.00
2023-03-26T05:53:45.461Z,1.30
2023-03-26T05:56:13.229Z,3.30
2023-03-26T05:58:42.217Z,1.50
2023-03-26T06:01:10.086Z,5.00
2023-03-26T06:03:37.863Z,2.50
2023-03-26T06:06:05.914Z,3.80
2023-03-26T06:08:33.789Z,1.60
2023-03-26T06:11:01.864Z,2.50
2023-03-26T06:13:29.516Z,3.10
2023-03-26T06:15:58.608Z,1.80
2023-03-26T06:18:26.729Z,3.10
2023-03-26T06:20:54.840Z,3.20
2023-03-26T06:23:23.575Z,2.60
2023-03-26T06:25:51.408Z,2.90
2023-03-26T06:28:19.250Z,2.50
2023-03-26T06:30:47.043Z,3.30
2023-03-26T06:33:14.708Z,3.70
2023-03-26T06:35:43.425Z,2.70
2023-03-26T06:38:11.154Z,4.60
2023-03-26T06:40:38.936Z,2.90
2023-03-26T06:43:10.669Z,1.40
2023-03-26T06:45:38.859Z,1.80
2023-03-26T06:48:06.730Z,2.90
2023-03-26T06:50:34.713Z,2.20
2023-03-26T06:53:02.551Z,2.30
2023-03-26T06:55:31.646Z,2.80
2023-03-26T06:57:59.515Z,3.20
2023-03-26T07:00:27.276Z,7.00
2023-03-26T07:02:55.109Z,3.30
2023-03-26T07:05:23.008Z,7.10
2023-03-26T07:07:50.985Z,4.80
2023-03-26T07:10:18.643Z,4.70
2023-03-26T07:12:46.716Z,2.80
2023-03-26T07:15:14.479Z,3.20
2023-03-26T07:17:42.395Z,2.30
2023-03-26T07:20:10.698Z,2.40
2023-03-26T07:22:38.590Z,3.00
2023-03-26T07:25:06.849Z,1.50
2023-03-26T07:27:34.634Z,3.80
2023-03-26T07:30:03.235Z,2.80
2023-03-26T07:32:31.202Z,3.80
2023-03-26T07:34:58.959Z,2.20
2023-03-26T07:37:27.013Z,2.50
2023-03-26T07:39:54.889Z,5.60
2023-03-26T07:42:22.636Z,4.30
2023-03-26T07:44:50.616Z,3.20
2023-03-26T07:47:18.788Z,4.30
2023-03-26T07:49:46.758Z,1.70
2023-03-26T07:52:14.625Z,2.60
2023-03-26T07:54:42.844Z,2.30
2023-03-26T07:57:10.957Z,3.00
2023-03-26T07:59:38.843Z,2.20
2023-03-26T08:02:06.806Z,4.20
2023-03-26T08:04:34.780Z,4.40
2023-03-26T08:07:02.792Z,3.50
2023-03-26T08:09:30.722Z,3.30
2023-03-26T08:11:58.988Z,1.80
2023-03-26T08:14:26.751Z,2.50
2023-03-26T08:16:54.515Z,5.80
2023-03-26T08:19:22.792Z,2.00
2023-03-26T08:21:50.664Z,2.90
2023-03-26T08:24:21.396Z,3.10
2023-03-26T08:26:49.264Z,4.50
2023-03-26T08:29:17.125Z,5.90
2023-03-26T08:31:45.503Z,4.50
2023-03-26T08:34:13.576Z,1.90
2023-03-26T08:36:41.544Z,4.00
2023-03-26T08:39:09.411Z,2.90
2023-03-26T08:41:37.183Z,3.80
2023-03-26T08:44:05.161Z,2.70
2023-03-26T08:46:33.165Z,2.10
2023-03-26T08:49:01.797Z,2.70
2023-03-26T08:51:29.663Z,2.80
2023-03-26T08:53:57.438Z,3.80
2023-03-26T08:56:26.227Z,3.40
2023-03-26T08:58:54.086Z,3.10
2023-03-26T09:01:22.061Z,3.70
2023-03-26T09:03:50.942Z,2.50
2023-03-26T09:06:18.706Z,1.90
2023-03-26T09:08:53.884Z,8.70
2023-03-26T09:11:22.681Z,2.60
2023-03-26T09:13:50.504Z,1.70
2023-03-26T09:16:18.294Z,6.30
2023-03-26T09:18:46.845Z,2.00
2023-03-26T09:21:14.769Z,3.60
2023-03-26T09:23:42.842Z,2.10
2023-03-26T09:26:10.867Z,3.10
2023-03-26T09:28:38.980Z,5.80
2023-03-26T09:31:07.129Z,1.30
2023-03-26T09:33:37.220Z,4.00
2023-03-26T09:36:05.110Z,1.90
2023-03-26T09:38:32.956Z,2.90
2023-03-26T09:41:01.541Z,3.30
2023-03-26T09:43:29.313Z,4.30
2023-03-26T09:45:57.204Z,2.60
2023-03-26T09:48:25.242Z,3.60
2023-03-26T09:50:55.225Z,4.00
2023-03-26T09:53:23.337Z,3.70
2023-03-26T09:55:51.296Z,4.80
2023-03-26T09:58:19.181Z,2.50
2023-03-26T10:00:47.164Z,2.80
2023-03-26T10:03:16.256Z,7.20
2023-03-26T10:05:44.314Z,4.60
2023-03-26T10:08:12.781Z,1.80
2023-03-26T10:10:40.755Z,2.70
2023-03-26T10:13:14.436Z,1.80
2023-03-26T10:15:42.935Z,2.80
2023-03-26T10:18:27.586Z,2.20
2023-03-26T10:20:57.920Z,4.70
2023-03-26T10:23:26.401Z,2.80
2023-03-26T10:25:54.263Z,4.70
2023-03-26T10:28:22.028Z,3.90
2023-03-26T10:30:49.904Z,2.60
2023-03-26T10:33:17.760Z,4.00
2023-03-26T10:35:45.618Z,2.20
2023-03-26T10:38:13.706Z,4.10
2023-03-26T10:40:43.330Z,2.50
2023-03-26T10:43:12.589Z,1.50
2023-03-26T10:45:40.983Z,2.10
2023-03-26T10:48:08.877Z,2.40
2023-03-26T10:50:36.823Z,2.70
2023-03-26T10:53:04.791Z,1.20
2023-03-26T10:55:33.171Z,2.40
2023-03-26T10:58:01.353Z,2.10
2023-03-26T11:00:30.232Z,1.60
2023-03-26T11:02:58.024Z,1.20
2023-03-26T11:05:25.881Z,7.20
2023-03-26T11:07:54.344Z,3.50
2023-03-26T11:10:22.006Z,2.70
2023-03-26T11:12:59.091Z,3.30
2023-03-26T11:15:27.432Z,2.50
2023-03-26T11:17:56.455Z,2.00
2023-03-26T11:20:26.605Z,2.10
2023-03-26T11:22:54.553Z,2.40
2023-03-26T11:25:22.427Z,1.50
2023-03-26T11:27:50.182Z,2.00
2023-03-26T11:30:17.952Z,1.30
2023-03-26T11:32:45.740Z,3.00
2023-03-26T11:35:13.785Z,6.70
2023-03-26T11:37:41.853Z,3.90
2023-03-26T11:40:09.727Z,2.40
2023-03-26T11:42:37.691Z,1.70
2023-03-26T11:45:05.558Z,1.80
2023-03-26T11:47:33.301Z,1.30
2023-03-26T11:50:01.503Z,1.40
2023-03-26T11:52:29.801Z,2.90
2023-03-26T11:54:59.684Z,4.40
2023-03-26T11:57:28.828Z,1.60
2023-03-26T11:59:57.950Z,1.50
2023-03-26T12:02:26.481Z,2.20
2023-03-26T12:04:55.751Z,1.10
2023-03-26T12:07:23.832Z,3.40
2023-03-26T12:09:52.209Z,1.70
2023-03-26T12:12:20.173Z,4.90
2023-03-26T12:14:47.933Z,4.10
2023-03-26T12:17:15.802Z,4.30
2023-03-26T12:19:44.080Z,1.50
2023-03-26T12:22:13.374Z,2.10
2023-03-26T12:24:47.795Z,2.20
2023-03-26T12:27:20.472Z,2.00
2023-03-26T12:29:48.976Z,2.70
2023-03-26T12:32:17.095Z,2.30
2023-03-26T12:34:45.170Z,1.70
2023-03-26T12:37:12.867Z,3.40
2023-03-26T12:40:10.666Z,3.10
2023-03-26T12:44:49.730Z,7.10
2023-03-26T12:45:19.493Z,3.40
2023-03-26T12:48:01.762Z,3.00
2023-03-26T12:50:34.455Z,2.50
2023-03-26T12:53:03.969Z,2.00
2023-03-26T12:55:31.826Z,5.10
2023-03-26T12:58:00.206Z,2.00
2023-03-26T13:00:47.930Z,1.60
2023-03-26T13:03:15.944Z,2.40
2023-03-26T13:05:44.600Z,3.20
2023-03-26T13:08:12.876Z,1.80
2023-03-26T13:10:41.570Z,1.40
2023-03-26T13:13:10.300Z,2.30
2023-03-26T13:15:39.245Z,7.20
2023-03-26T13:18:07.945Z,1.30
2023-03-26T13:20:37.872Z,1.20
2023-03-26T13:23:06.115Z,1.90
2023-03-26T13:25:34.082Z,1.70
2023-03-26T13:28:02.154Z,2.20
2023-03-26T13:30:31.436Z,3.30
2023-03-26T13:33:00.093Z,2.80
2023-03-26T13:35:28.294Z,3.30
2023-03-26T13:37:56.590Z,1.40
2023-03-26T13:40:26.095Z,3.60
2023-03-26T13:42:55.081Z,1.60
2023-03-26T13:45:23.996Z,2.90
2023-03-26T13:47:52.042Z,2.50
2023-03-26T13:50:22.495Z,2.80
2023-03-26T13:52:55.771Z,4.70
2023-03-26T13:55:23.637Z,4.20
2023-03-26T13:57:55.547Z,2.40
2023-03-26T14:00:24.087Z,2.60
2023-03-26T14:02:52.645Z,5.60
2023-03-26T14:05:20.692Z,4.50
2023-03-26T14:07:48.920Z,2.70
2023-03-26T14:10:16.982Z,2.40
2023-03-26T14:12:49.587Z,3.10
2023-03-26T14:15:17.909Z,2.30
2023-03-26T14:17:47.815Z,1.60
2023-03-26T14:20:15.716Z,3.60
2023-03-26T14:22:43.488Z,3.80
2023-03-26T14:25:17.277Z,2.80
2023-03-26T14:27:45.086Z,2.70
2023-03-26T14:30:12.917Z,2.30
2023-03-26T14:32:41.107Z,4.20
2023-03-26T14:35:09.980Z,3.30
2023-03-26T14:37:38.613Z,4.10
2023-03-26T14:40:13.085Z,3.40
2023-03-26T14:42:40.951Z,10.70
2023-03-26T14:45:08.613Z,7.50
2023-03-26T14:47:36.760Z,4.00
2023-03-26T14:50:04.735Z,3.40
2023-03-26T14:52:32.521Z,6.80
2023-03-26T14:55:00.497Z,4.40
2023-03-26T14:57:28.373Z,4.50
2023-03-26T14:59:56.122Z,4.80
2023-03-26T15:02:24.358Z,3.80
2023-03-26T15:04:52.368Z,3.10
2023-03-26T15:07:20.135Z,13.60
2023-03-26T15:09:49.434Z,13.60
2023-03-26T15:12:17.201Z,101.30
2023-03-26T15:14:46.187Z,16.70
2023-03-26T15:17:13.954Z,9.80
2023-03-26T15:19:41.717Z,4.20
2023-03-26T15:22:10.914Z,4.10
2023-03-26T15:24:38.582Z,2.70
2023-03-26T15:27:06.544Z,5.20
2023-03-26T15:29:35.845Z,2.40
2023-03-26T15:32:03.769Z,3.20
2023-03-26T15:34:32.089Z,3.20
2023-03-26T15:37:00.568Z,2.40
2023-03-26T15:39:28.333Z,2.30
2023-03-26T15:41:56.302Z,2.40
2023-03-26T15:44:25.515Z,3.90
2023-03-26T15:46:53.675Z,5.30
2023-03-26T15:49:21.437Z,2.80
2023-03-26T15:51:49.512Z,7.80
2023-03-26T15:54:21.629Z,13.60
2023-03-26T15:56:55.946Z,24.40
2023-03-26T15:59:29.465Z,24.60
2023-03-26T16:02:04.320Z,23.20
2023-03-26T16:04:32.733Z,15.10
2023-03-26T16:07:03.854Z,15.50
2023-03-26T16:09:32.641Z,34.30
2023-03-26T16:12:00.598Z,70.90
2023-03-26T16:14:28.465Z,80.70
2023-03-26T16:16:56.228Z,41.70
2023-03-26T16:19:24.505Z,56.80
2023-03-26T16:21:52.680Z,96.70
2023-03-26T16:24:20.750Z,45.70
2023-03-26T16:26:48.619Z,21.10
2023-03-26T16:29:16.380Z,20.90
2023-03-26T16:31:44.672Z,18.20
2023-03-26T16:34:12.423Z,17.90
2023-03-26T16:36:40.821Z,16.60
2023-03-26T16:39:08.985Z,22.90
2023-03-26T16:41:37.560Z,23.80
2023-03-26T16:44:05.532Z,28.90
2023-03-26T16:46:33.637Z,27.90
2023-03-26T16:49:01.482Z,34.10
2023-03-26T16:51:29.542Z,36.50
2023-03-26T16:53:57.946Z,40.50
2023-03-26T16:56:28.132Z,21.90
2023-03-26T16:58:56.419Z,18.30
2023-03-26T17:01:27.613Z,22.30
2023-03-26T17:03:55.616Z,62.20
2023-03-26T17:06:23.601Z,85.70
2023-03-26T17:08:53.579Z,72.20
2023-03-26T17:11:21.825Z,89.10
2023-03-26T17:13:50.061Z,88.30
2023-03-26T17:16:18.077Z,68.00
2023-03-26T17:18:46.340Z,70.70
2023-03-26T17:21:14.380Z,68.60
2023-03-26T17:23:42.449Z,60.10
2023-03-26T17:26:10.110Z,64.30
2023-03-26T17:28:37.879Z,71.70
2023-03-26T17:31:05.881Z,86.50
2023-03-26T17:33:35.024Z,82.90
2023-03-26T17:36:02.863Z,78.40
2023-03-26T17:38:32.275Z,63.20
2023-03-26T17:41:00.062Z,66.30
2023-03-26T17:43:28.661Z,63.90
2023-03-26T17:46:02.913Z,61.10
2023-03-26T17:48:35.120Z,61.50
2023-03-26T17:51:02.809Z,57.40
2023-03-26T17:53:33.344Z,52.40
2023-03-26T17:56:03.560Z,54.20
2023-03-26T17:58:32.035Z,48.30
2023-03-26T18:00:59.724Z,48.10
2023-03-26T18:03:29.589Z,46.50
2023-03-26T18:05:58.518Z,42.50
2023-03-26T18:08:26.375Z,42.70
2023-03-26T18:10:54.296Z,50.30
2023-03-26T18:13:22.217Z,54.70
2023-03-26T18:15:49.971Z,53.50
2023-03-26T18:18:18.657Z,50.50
2023-03-26T18:20:47.262Z,40.60
2023-03-26T18:23:15.011Z,32.60
2023-03-26T18:25:42.871Z,35.00
2023-03-26T18:28:10.739Z,36.80
2023-03-26T18:30:38.706Z,45.20
2023-03-26T18:33:06.664Z,53.60
2023-03-26T18:35:34.552Z,49.50
2023-03-26T18:38:03.748Z,60.00
2023-03-26T18:40:31.505Z,62.50
2023-03-26T18:42:59.263Z,66.50
2023-03-26T18:45:27.439Z,63.90
2023-03-26T18:47:56.032Z,39.50
2023-03-26T18:50:23.807Z,32.20
2023-03-26T18:52:51.550Z,26.70
2023-03-26T18:55:19.418Z,21.50
2023-03-26T18:57:47.181Z,21.90
2023-03-26T19:00:17.097Z,19.10
2023-03-26T19:02:44.940Z,16.70
2023-03-26T19:05:12.940Z,16.60
2023-03-26T19:07:41.134Z,18.80
2023-03-26T19:10:08.971Z,14.50
2023-03-26T19:12:37.766Z,21.00
2023-03-26T19:15:08.100Z,34.60
2023-03-26T19:17:38.430Z,33.90
2023-03-26T19:20:09.974Z,34.70
2023-03-26T19:22:38.241Z,36.80
2023-03-26T19:25:06.001Z,48.30
2023-03-26T19:27:33.761Z,49.20
2023-03-26T19:30:01.526Z,47.30
2023-03-26T19:32:29.748Z,43.30
2023-03-26T19:34:57.469Z,35.70
2023-03-26T19:37:25.340Z,31.30
2023-03-26T19:39:53.106Z,30.30
2023-03-26T19:42:21.391Z,22.30
2023-03-26T19:44:49.455Z,17.90
2023-03-26T19:47:17.317Z,25.60
2023-03-26T19:49:45.182Z,33.40
2023-03-26T19:52:12.950Z,29.20
2023-03-26T19:54:40.711Z,30.70
2023-03-26T19:57:28.237Z,35.70
2023-03-26T19:59:56.207Z,26.30
2023-03-26T20:02:23.998Z,27.90
2023-03-26T20:04:51.838Z,20.10
2023-03-26T20:07:20.273Z,21.20
2023-03-26T20:09:48.824Z,11.70
2023-03-26T20:12:20.763Z,15.90
2023-03-26T20:14:49.041Z,17.40
2023-03-26T20:17:16.906Z,18.60
2023-03-26T20:19:44.671Z,20.50
2023-03-26T20:22:12.433Z,20.10
2023-03-26T20:24:40.609Z,23.70
2023-03-26T20:27:08.372Z,19.70
2023-03-26T20:29:36.953Z,18.80
2023-03-26T20:32:09.649Z,20.10
2023-03-26T20:34:38.621Z,15.20
2023-03-26T20:37:07.206Z,13.60
2023-03-26T20:39:34.973Z,15.40
2023-03-26T20:42:02.733Z,12.60
2023-03-26T20:44:31.016Z,9.90
2023-03-26T20:46:59.296Z,11.20
2023-03-26T20:49:29.605Z,14.00
2023-03-26T20:51:57.882Z,15.40
2023-03-26T20:54:25.549Z,13.40
2023-03-26T20:56:53.720Z,16.10
2023-03-26T20:59:22.406Z,13.20
2023-03-26T21:01:50.538Z,10.50
2023-03-26T21:04:19.388Z,12.10
2023-03-26T21:06:47.029Z,13.40
2023-03-26T21:09:18.073Z,10.30
2023-03-26T21:11:46.054Z,11.50
2023-03-26T21:14:13.903Z,15.00
2023-03-26T21:16:41.586Z,15.40
2023-03-26T21:19:10.353Z,14.60
2023-03-26T21:21:38.013Z,18.90
2023-03-26T21:24:06.199Z,19.40
2023-03-26T21:26:33.849Z,29.50
2023-03-26T21:29:09.404Z,21.50
2023-03-26T21:31:38.227Z,20.60
2023-03-26T21:34:06.069Z,22.20
2023-03-26T21:36:33.865Z,20.70
2023-03-26T21:39:01.585Z,23.00
2023-03-26T21:41:29.245Z,30.50
2023-03-26T21:43:57.009Z,22.70
2023-03-26T21:46:24.803Z,23.90
2023-03-26T21:48:52.558Z,17.00
2023-03-26T21:51:20.306Z,16.80
2023-03-26T21:53:49.090Z,18.60
2023-03-26T21:56:16.749Z,21.50
2023-03-26T21:58:44.514Z,21.00
2023-03-26T22:01:12.408Z,28.00
2023-03-26T22:03:40.259Z,57.90
2023-03-26T22:06:08.119Z,55.60
2023-03-26T22:08:35.877Z,38.10
2023-03-26T22:11:03.513Z,33.20
2023-03-26T22:13:31.305Z,23.90
2023-03-26T22:15:59.013Z,20.10
2023-03-26T22:18:30.356Z,20.10
2023-03-26T22:20:59.405Z,24.10
2023-03-26T22:23:27.280Z,19.30
2023-03-26T22:25:55.047Z,20.50
2023-03-26T22:28:22.704Z,22.20
2023-03-26T22:30:50.707Z,17.50
2023-03-26T22:33:18.437Z,20.40
2023-03-26T22:35:46.327Z,17.40
2023-03-26T22:38:14.068Z,19.90
2023-03-26T22:40:41.731Z,21.80
2023-03-26T22:43:09.605Z,24.10
2023-03-26T22:45:37.875Z,22.90
2023-03-26T22:48:05.746Z,25.40
2023-03-26T22:50:33.538Z,29.70
2023-03-26T22:53:01.367Z,40.80
2023-03-26T22:55:29.788Z,36.40
2023-03-26T22:57:57.933Z,42.80
2023-03-26T23:00:26.746Z,33.20
2023-03-26T23:02:56.082Z,31.70
2023-03-26T23:05:23.977Z,28.80
2023-03-26T23:07:52.467Z,46.00
2023-03-26T23:10:21.861Z,36.50
2023-03-26T23:12:49.846Z,25.10
2023-03-26T23:15:17.592Z,27.20
2023-03-26T23:17:45.454Z,25.70
2023-03-26T23:20:22.753Z,25.00
2023-03-26T23:22:50.831Z,26.20
2023-03-26T23:25:18.588Z,24.60
2023-03-26T23:27:46.244Z,26.40
2023-03-26T23:30:15.347Z,28.10
2023-03-26T23:32:43.586Z,23.10
2023-03-26T23:35:11.483Z,19.90
2023-03-26T23:37:42.681Z,24.00
2023-03-26T23:40:10.907Z,21.00
2023-03-26T23:42:38.671Z,22.20
2023-03-26T23:45:06.333Z,19.30
2023-03-26T23:47:37.598Z,25.70
2023-03-26T23:50:05.356Z,18.90
2023-03-26T23:52:33.107Z,21.40
2023-03-26T23:55:01.380Z,21.80
2023-03-26T23:57:29.346Z,22.40
2023-03-26T23:59:57.010Z,22.70
